Terminal Aerodrome Forecast
Issued by NWS

Home | Current Version | Previous Version | Text Only | Print | Product List | Glossary On
Versions: 1 2 3 4 5 6 7 8 9 10 11 12
000
FTUS45 KRIW 261136
TAFBPI
TAF
KBPI 261136Z 2612/2712 VRB05KT P6SM VCSH BKN070
     FM261400 VRB06KT P6SM VCTS SCT030CB BKN050
      TEMPO 2615/2618 5SM -TSRA BKN030CB
     FM262000 31015G25KT P6SM VCTS SCT040CB BKN060
     FM270100 34009KT P6SM BKN060=

USA.gov is the U.S. government's official web portal to all federal, state and local government web resources and services.